createdAt,value
2019-01-04T00:00:10.006Z,95031.95
2019-01-04T00:02:35.994Z,95030.61
2019-01-04T00:05:01.975Z,95028.45
2019-01-04T00:07:28.001Z,95032.98
2019-01-04T00:09:54.035Z,95032.98
2019-01-04T00:12:20.014Z,95033.98
2019-01-04T00:14:45.998Z,95039.22
2019-01-04T00:17:12.020Z,95038.09
2019-01-04T00:19:38.023Z,95037.68
2019-01-04T00:22:03.984Z,95040.76
2019-01-04T00:24:30.045Z,95047.83
2019-01-04T00:26:55.985Z,95043.42
2019-01-04T00:29:21.980Z,95048.33
2019-01-04T00:31:48.015Z,95044.75
2019-01-04T00:34:13.994Z,95053.78
2019-01-04T00:36:39.967Z,95057.86
2019-01-04T00:39:05.989Z,95049.45
2019-01-04T00:41:31.983Z,95056.94
2019-01-04T00:43:57.949Z,95054.36
2019-01-04T00:46:23.981Z,95050.37
2019-01-04T00:48:49.980Z,95055.69
2019-01-04T00:51:15.939Z,95050.98
2019-01-04T00:53:41.973Z,95056.73
2019-01-04T00:56:07.965Z,95049.66
2019-01-04T00:58:33.944Z,95055.81
2019-01-04T01:00:59.961Z,95053.65
2019-01-04T01:03:25.971Z,95047.52
2019-01-04T01:05:51.941Z,95050.69
2019-01-04T01:08:17.957Z,95060.84
2019-01-04T01:10:43.948Z,95057.76
2019-01-04T01:13:09.955Z,95051.10
2019-01-04T01:15:35.946Z,95051.52
2019-01-04T01:18:01.924Z,95055.09
2019-01-04T01:20:27.942Z,95054.27
2019-01-04T01:22:53.920Z,95056.09
2019-01-04T01:25:19.933Z,95054.27
2019-01-04T01:27:45.922Z,95050.77
2019-01-04T01:30:11.915Z,95052.22
2019-01-04T01:32:37.934Z,95049.55
2019-01-04T01:35:03.922Z,95050.47
2019-01-04T01:37:29.909Z,95053.14
2019-01-04T01:39:55.936Z,95050.06
2019-01-04T01:42:21.924Z,95046.98
2019-01-04T01:44:47.886Z,95046.59
2019-01-04T01:47:13.909Z,95040.44
2019-01-04T01:49:39.886Z,95047.18
2019-01-04T01:52:05.914Z,95047.52
2019-01-04T01:54:31.901Z,95048.84
2019-01-04T01:56:57.892Z,95041.36
2019-01-04T01:59:23.906Z,95044.02
2019-01-04T02:01:49.888Z,95040.02
2019-01-04T02:04:15.852Z,95044.02
2019-01-04T02:06:41.855Z,95046.18
2019-01-04T02:09:07.826Z,95035.11
2019-01-04T02:11:33.801Z,95035.73
2019-01-04T02:13:59.816Z,95036.14
2019-01-04T02:16:25.788Z,95043.19
2019-01-04T02:18:51.774Z,95043.72
2019-01-04T02:21:17.794Z,95042.89
2019-01-04T02:23:43.788Z,95045.85
2019-01-04T02:26:09.764Z,95045.47
2019-01-04T02:28:35.795Z,95043.39
2019-01-04T02:31:01.767Z,95045.05
2019-01-04T02:33:27.751Z,95042.89
2019-01-04T02:35:53.772Z,95048.22
2019-01-04T02:38:19.735Z,95047.71
2019-01-04T02:40:45.731Z,95049.96
2019-01-04T02:43:11.739Z,95055.29
2019-01-04T02:45:37.707Z,95054.37
2019-01-04T02:48:03.699Z,95055.70
2019-01-04T02:50:29.717Z,95057.12
2019-01-04T02:52:55.681Z,95050.88
2019-01-04T02:55:21.646Z,95050.88
2019-01-04T02:57:47.648Z,95051.80
2019-01-04T03:00:13.682Z,95055.79
2019-01-04T03:02:39.677Z,95060.61
2019-01-04T03:05:05.633Z,95058.98
2019-01-04T03:07:31.655Z,95054.98
2019-01-04T03:09:57.664Z,95057.95
2019-01-04T03:12:23.654Z,95066.86
2019-01-04T03:14:49.698Z,95074.95
2019-01-04T03:17:15.662Z,95070.97
2019-01-04T03:19:41.660Z,95076.38
2019-01-04T03:22:07.673Z,95078.63
2019-01-04T03:24:33.674Z,95077.70
2019-01-04T03:26:59.670Z,95083.33
2019-01-04T03:29:25.711Z,95086.61
2019-01-04T03:31:51.668Z,95083.86
2019-01-04T03:34:17.656Z,95087.44
2019-01-04T03:36:43.658Z,95087.86
2019-01-04T03:39:09.643Z,95083.95
2019-01-04T03:41:35.669Z,95089.69
2019-01-04T03:44:01.668Z,95084.86
2019-01-04T03:46:27.634Z,95083.03
2019-01-04T03:48:53.663Z,95092.05
2019-01-04T03:51:19.629Z,95091.02
2019-01-04T03:53:45.671Z,95099.92
2019-01-04T03:56:11.632Z,95095.93
2019-01-04T03:58:37.639Z,95095.13
2019-01-04T04:01:03.642Z,95110.58
2019-01-04T04:03:29.624Z,95108.33
2019-01-04T04:05:55.590Z,95110.58
2019-01-04T04:08:21.636Z,95107.11
2019-01-04T04:10:47.599Z,95113.23
2019-01-04T04:13:13.578Z,95111.49
2019-01-04T04:15:39.608Z,95119.09
2019-01-04T04:18:05.591Z,95116.44
2019-01-04T04:20:31.556Z,95116.94
2019-01-04T04:22:57.599Z,95115.19
2019-01-04T04:25:23.562Z,95117.35
2019-01-04T04:27:49.543Z,95125.64
2019-01-04T04:30:15.586Z,95127.08
2019-01-04T04:32:41.583Z,95125.34
2019-01-04T04:35:07.559Z,95123.59
2019-01-04T04:37:33.591Z,95122.67
2019-01-04T04:39:59.585Z,95128.80
2019-01-04T04:42:25.606Z,95129.41
2019-01-04T04:44:51.593Z,95132.49
2019-01-04T04:47:17.569Z,95132.99
2019-01-04T04:49:43.592Z,95140.06
2019-01-04T04:52:09.587Z,95140.59
2019-01-04T04:54:35.576Z,95138.85
2019-01-04T04:57:01.614Z,95140.06
2019-01-04T04:59:27.621Z,95143.64
2019-01-04T05:01:53.661Z,95144.98
2019-01-04T05:04:19.633Z,95145.39
2019-01-04T05:06:45.602Z,95159.95
2019-01-04T05:09:11.623Z,95153.71
2019-01-04T05:11:37.678Z,95158.63
2019-01-04T05:14:03.693Z,95155.95
2019-01-04T05:16:29.882Z,95159.95
2019-01-04T05:18:55.866Z,95160.67
2019-01-04T05:21:21.860Z,95168.05
2019-01-04T05:23:47.913Z,95170.08
2019-01-04T05:26:13.916Z,95169.98
2019-01-04T05:28:39.891Z,95174.81
2019-01-04T05:31:05.913Z,95183.94
2019-01-04T05:33:31.991Z,95186.69
2019-01-04T05:35:58.023Z,95192.13
2019-01-04T05:38:23.958Z,95193.04
2019-01-04T05:40:49.997Z,95196.62
2019-01-04T05:43:16.011Z,95200.31
2019-01-04T05:45:41.999Z,95206.44
2019-01-04T05:48:08.013Z,95213.93
2019-01-04T05:50:34.013Z,95217.09
2019-01-04T05:52:59.994Z,95222.61
2019-01-04T05:55:25.993Z,95222.81
2019-01-04T05:57:52.001Z,95222.09
2019-01-04T06:00:17.980Z,95223.92
2019-01-04T06:02:43.959Z,95231.41
2019-01-04T06:05:09.982Z,95245.64
2019-01-04T06:07:35.995Z,95247.09
2019-01-04T06:10:01.959Z,95246.34
2019-01-04T06:12:28.260Z,95254.44
2019-01-04T06:14:54.222Z,95257.59
2019-01-04T06:17:20.218Z,95264.25
2019-01-04T06:19:46.266Z,95264.45
2019-01-04T06:22:12.246Z,95277.77
2019-01-04T06:24:38.225Z,95275.52
2019-01-04T06:27:04.251Z,95281.27
2019-01-04T06:29:30.225Z,95280.55
2019-01-04T06:31:56.271Z,95284.01
2019-01-04T06:34:22.248Z,95285.95
2019-01-04T06:36:48.261Z,95292.61
2019-01-04T06:39:14.265Z,95297.52
2019-01-04T06:41:40.265Z,95305.83
2019-01-04T06:44:06.229Z,95298.84
2019-01-04T06:46:32.306Z,95297.52
2019-01-04T06:48:58.286Z,95304.17
2019-01-04T06:51:27.773Z,95308.69
2019-01-04T06:53:50.376Z,95323.22
2019-01-04T06:56:16.370Z,95321.70
2019-01-04T06:58:42.343Z,95320.70
2019-01-04T07:01:08.391Z,95335.53
2019-01-04T07:03:34.361Z,95338.11
2019-01-04T07:06:00.346Z,95341.20
2019-01-04T07:08:26.365Z,95342.75
2019-01-04T07:10:52.341Z,95362.80
2019-01-04T07:13:18.330Z,95359.53
2019-01-04T07:15:44.336Z,95367.83
2019-01-04T07:18:10.320Z,95370.91
2019-01-04T07:20:36.307Z,95381.55
2019-01-04T07:23:02.343Z,95384.94
2019-01-04T07:25:28.360Z,95382.77
2019-01-04T07:27:54.349Z,95391.27
2019-01-04T07:30:20.391Z,95400.80
2019-01-04T07:32:46.382Z,95397.84
2019-01-04T07:35:12.369Z,95404.00
2019-01-04T07:37:38.427Z,95408.59
2019-01-04T07:40:04.403Z,95409.32
2019-01-04T07:42:30.377Z,95410.77
2019-01-04T07:44:56.416Z,95415.59
2019-01-04T07:47:22.422Z,95415.48
2019-01-04T07:49:48.401Z,95419.47
2019-01-04T07:52:14.428Z,95424.00
2019-01-04T07:54:40.513Z,95423.58
2019-01-04T07:57:06.520Z,95425.41
2019-01-04T07:59:32.516Z,95428.19
2019-01-04T08:01:58.554Z,95427.80
2019-01-04T08:04:24.556Z,95429.93
2019-01-04T08:06:50.549Z,95436.59
2019-01-04T08:09:16.593Z,95441.42
2019-01-04T08:11:42.582Z,95440.81
2019-01-04T08:14:08.574Z,95438.45
2019-01-04T08:16:34.589Z,95447.58
2019-01-04T08:19:00.578Z,95450.58
2019-01-04T08:21:26.561Z,95452.33
2019-01-04T08:23:52.615Z,95445.45
2019-01-04T08:26:18.591Z,95450.05
2019-01-04T08:28:44.559Z,95456.33
2019-01-04T08:31:10.581Z,95456.33
2019-01-04T08:33:36.587Z,95459.29
2019-01-04T08:36:02.553Z,95457.66
2019-01-04T08:38:28.581Z,95465.12
2019-01-04T08:40:54.551Z,95461.54
2019-01-04T08:43:20.527Z,95467.59
2019-01-04T08:45:46.550Z,95460.31
2019-01-04T08:48:12.525Z,95462.64
2019-01-04T08:50:38.555Z,95458.56
2019-01-04T08:53:04.552Z,95458.04
2019-01-04T08:55:30.529Z,95452.52
2019-01-04T08:57:56.555Z,95453.44
2019-01-04T09:00:22.538Z,95446.70
2019-01-04T09:02:48.513Z,95441.26
2019-01-04T09:05:14.533Z,95443.92
2019-01-04T09:07:40.521Z,95434.18
2019-01-04T09:10:07.825Z,95439.02
2019-01-04T09:12:32.513Z,95441.14
2019-01-04T09:14:58.506Z,95436.73
2019-01-04T09:17:24.470Z,95443.50
2019-01-04T09:19:50.484Z,95439.92
2019-01-04T09:22:16.480Z,95442.25
2019-01-04T09:24:42.494Z,95451.19
2019-01-04T09:27:08.502Z,95444.84
2019-01-04T09:29:34.500Z,95443.58
2019-01-04T09:32:00.459Z,95448.00
2019-01-04T09:34:26.496Z,95444.42
2019-01-04T09:36:52.475Z,95432.44
2019-01-04T09:39:18.465Z,95441.26
2019-01-04T09:41:44.490Z,95447.50
2019-01-04T09:44:10.456Z,95449.97
2019-01-04T09:46:36.463Z,95451.49
2019-01-04T09:49:02.468Z,95450.66
2019-01-04T09:51:28.471Z,95459.48
2019-01-04T09:53:54.454Z,95460.31
2019-01-04T09:56:20.493Z,95451.49
2019-01-04T09:58:46.468Z,95450.58
2019-01-04T10:01:12.485Z,95450.58
2019-01-04T10:03:38.513Z,95446.17
2019-01-04T10:06:04.506Z,95444.84
2019-01-04T10:08:30.501Z,95450.58
2019-01-04T10:10:56.521Z,95453.33
2019-01-04T10:13:22.503Z,95454.66
2019-01-04T10:15:48.487Z,95458.23
2019-01-04T10:18:14.520Z,95458.34
2019-01-04T10:20:40.498Z,95459.37
2019-01-04T10:23:06.473Z,95460.28
2019-01-04T10:25:32.519Z,95453.71
2019-01-04T10:27:58.535Z,95455.45
2019-01-04T10:30:24.546Z,95455.88
2019-01-04T10:32:50.574Z,95451.46
2019-01-04T10:35:16.563Z,95450.63
2019-01-04T10:37:42.532Z,95451.16
2019-01-04T10:40:11.108Z,95454.43
2019-01-04T10:42:34.542Z,95455.19
2019-01-04T10:45:00.525Z,95450.16
2019-01-04T10:47:26.561Z,95452.22
2019-01-04T10:49:52.552Z,95449.97
2019-01-04T10:52:18.530Z,95453.36
2019-01-04T10:54:44.548Z,95451.11
2019-01-04T10:57:10.533Z,95455.41
2019-01-04T10:59:36.501Z,95452.33
2019-01-04T11:02:02.524Z,95454.08
2019-01-04T11:04:28.518Z,95455.22
2019-01-04T11:06:54.507Z,95456.97
2019-01-04T11:09:20.537Z,95449.89
2019-01-04T11:11:46.558Z,95454.72
2019-01-04T11:14:12.555Z,95450.11
2019-01-04T11:16:38.537Z,95447.56
2019-01-04T11:19:04.713Z,95457.41
2019-01-04T11:21:30.753Z,95457.27
2019-01-04T11:23:56.733Z,95453.27
2019-01-04T11:26:22.706Z,95455.55
2019-01-04T11:28:48.732Z,95461.91
2019-01-04T11:31:14.704Z,95459.58
2019-01-04T11:33:40.685Z,95460.08
2019-01-04T11:36:06.712Z,95456.38
2019-01-04T11:38:32.696Z,95457.83
2019-01-04T11:40:58.686Z,95456.72
2019-01-04T11:43:24.707Z,95460.38
2019-01-04T11:45:50.704Z,95463.05
2019-01-04T11:48:16.681Z,95467.38
2019-01-04T11:50:42.703Z,95468.30
2019-01-04T11:53:08.721Z,95466.55
2019-01-04T11:55:34.708Z,95464.19
2019-01-04T11:58:00.738Z,95466.43
2019-01-04T12:00:26.713Z,95466.84
2019-01-04T12:02:52.695Z,95467.27
2019-01-04T12:05:18.725Z,95471.67
2019-01-04T12:07:44.732Z,95477.00
2019-01-04T12:10:10.703Z,95477.84
2019-01-04T12:12:36.957Z,95477.92
2019-01-04T12:15:02.920Z,95470.54
2019-01-04T12:17:28.925Z,95472.70
2019-01-04T12:19:55.126Z,95472.70
2019-01-04T12:22:21.147Z,95476.28
2019-01-04T12:24:47.127Z,95473.62
2019-01-04T12:27:13.116Z,95472.78
2019-01-04T12:29:39.143Z,95469.70
2019-01-04T12:32:05.128Z,95470.84
2019-01-04T12:34:31.116Z,95470.04
2019-01-04T12:36:57.142Z,95472.70
2019-01-04T12:39:23.116Z,95475.86
2019-01-04T12:41:49.093Z,95480.50
2019-01-04T12:44:15.114Z,95471.87
2019-01-04T12:46:41.086Z,95477.20
2019-01-04T12:49:07.097Z,95480.16
2019-01-04T12:51:33.097Z,95484.69
2019-01-04T12:53:59.122Z,95490.94
2019-01-04T12:56:25.196Z,95493.06
2019-01-04T12:58:51.230Z,95498.92
2019-01-04T13:01:17.234Z,95497.06
2019-01-04T13:03:43.236Z,95495.73
2019-01-04T13:06:09.520Z,95501.67
2019-01-04T13:08:35.491Z,95502.09
2019-01-04T13:11:01.553Z,95504.33
2019-01-04T13:13:27.557Z,95501.06
2019-01-04T13:15:53.523Z,95510.08
2019-01-04T13:18:19.536Z,95511.19
2019-01-04T13:20:45.500Z,95510.69
2019-01-04T13:23:11.483Z,95514.19
2019-01-04T13:25:37.493Z,95507.19
2019-01-04T13:28:03.489Z,95505.86
2019-01-04T13:30:29.454Z,95505.36
2019-01-04T13:32:55.470Z,95503.69
2019-01-04T13:35:21.453Z,95500.53
2019-01-04T13:37:47.414Z,95495.81
2019-01-04T13:40:13.434Z,95501.14
2019-01-04T13:42:39.417Z,95501.64
2019-01-04T13:45:05.453Z,95497.22
2019-01-04T13:47:32.341Z,95497.14
2019-01-04T13:49:57.418Z,95494.17
2019-01-04T13:52:23.476Z,95492.31
2019-01-04T13:54:49.427Z,95500.00
2019-01-04T13:57:15.405Z,95496.42
2019-01-04T13:59:41.486Z,95497.34
2019-01-04T14:02:07.450Z,95497.83
2019-01-04T14:04:33.437Z,95498.17
2019-01-04T14:06:59.465Z,95495.70
2019-01-04T14:09:25.448Z,95499.16
2019-01-04T14:11:51.426Z,95501.02
2019-01-04T14:14:17.462Z,95508.67
2019-01-04T14:16:43.427Z,95508.79
2019-01-04T14:19:09.410Z,95510.42
2019-01-04T14:21:35.438Z,95501.41
2019-01-04T14:24:01.430Z,95503.27
2019-01-04T14:26:27.408Z,95500.19
2019-01-04T14:28:53.523Z,95501.22
2019-01-04T14:31:19.517Z,95500.69
2019-01-04T14:33:45.505Z,95505.59
2019-01-04T14:36:11.517Z,95507.95
2019-01-04T14:38:37.521Z,95513.28
2019-01-04T14:41:03.488Z,95513.05
2019-01-04T14:43:29.537Z,95508.56
2019-01-04T14:45:55.506Z,95515.72
2019-01-04T14:48:21.530Z,95515.72
2019-01-04T14:50:47.539Z,95513.59
2019-01-04T14:53:13.521Z,95511.84
2019-01-04T14:55:39.515Z,95511.00
2019-01-04T14:58:05.555Z,95511.91
2019-01-04T15:00:31.548Z,95512.33
2019-01-04T15:02:57.528Z,95512.52
2019-01-04T15:05:23.542Z,95515.19
2019-01-04T15:07:49.533Z,95512.64
2019-01-04T15:10:15.526Z,95516.21
2019-01-04T15:12:41.652Z,95521.13
2019-01-04T15:15:07.635Z,95517.63
2019-01-04T15:17:33.663Z,95519.06
2019-01-04T15:19:59.663Z,95518.23
2019-01-04T15:22:25.674Z,95524.89
2019-01-04T15:24:51.676Z,95518.34
2019-01-04T15:27:17.711Z,95522.34
2019-01-04T15:29:43.683Z,95523.67
2019-01-04T15:32:09.678Z,95524.66
2019-01-04T15:34:35.713Z,95525.69
2019-01-04T15:37:01.713Z,95520.36
2019-01-04T15:39:27.690Z,95520.36
2019-01-04T15:41:53.694Z,95523.11
2019-01-04T15:44:19.674Z,95520.44
2019-01-04T15:46:45.746Z,95520.97
2019-01-04T15:49:11.887Z,95521.88
2019-01-04T15:51:37.873Z,95524.44
2019-01-04T15:54:03.850Z,95521.78
2019-01-04T15:56:29.919Z,95526.30
2019-01-04T15:58:55.896Z,95535.92
2019-01-04T16:01:21.908Z,95540.15
2019-01-04T16:03:48.073Z,95537.06
2019-01-04T16:06:14.217Z,95544.37
2019-01-04T16:08:40.184Z,95544.26
2019-01-04T16:11:06.456Z,95551.64
2019-01-04T16:13:32.461Z,95548.59
2019-01-04T16:15:58.502Z,95547.15
2019-01-04T16:18:24.499Z,95547.56
2019-01-04T16:20:50.485Z,95547.98
2019-01-04T16:23:16.530Z,95547.98
2019-01-04T16:25:42.623Z,95553.53
2019-01-04T16:28:08.633Z,95544.30
2019-01-04T16:30:34.750Z,95543.80
2019-01-04T16:33:00.738Z,95546.77
2019-01-04T16:35:26.719Z,95548.21
2019-01-04T16:37:52.734Z,95546.12
2019-01-04T16:40:18.715Z,95541.21
2019-01-04T16:42:44.710Z,95540.80
2019-01-04T16:45:10.747Z,95543.45
2019-01-04T16:47:36.751Z,95544.80
2019-01-04T16:50:02.728Z,95541.74
2019-01-04T16:52:28.781Z,95543.98
2019-01-04T16:54:54.746Z,95545.40
2019-01-04T16:57:20.764Z,95539.16
2019-01-04T16:59:46.772Z,95539.66
2019-01-04T17:02:12.754Z,95544.41
2019-01-04T17:04:38.774Z,95540.80
2019-01-04T17:07:04.810Z,95543.45
2019-01-04T17:09:30.782Z,95540.80
2019-01-04T17:11:56.891Z,95540.22
2019-01-04T17:14:22.878Z,95538.36
2019-01-04T17:16:48.894Z,95535.80
2019-01-04T17:19:14.900Z,95538.78
2019-01-04T17:21:40.900Z,95540.11
2019-01-04T17:24:06.929Z,95537.37
2019-01-04T17:26:33.412Z,95531.51
2019-01-04T17:28:59.396Z,95530.70
2019-01-04T17:31:25.398Z,95534.17
2019-01-04T17:33:51.399Z,95527.63
2019-01-04T17:36:17.407Z,95531.09
2019-01-04T17:38:44.232Z,95535.01
2019-01-04T17:41:10.250Z,95536.34
2019-01-04T17:43:36.216Z,95532.95
2019-01-04T17:46:02.250Z,95538.59
2019-01-04T17:48:28.256Z,95541.36
2019-01-04T17:50:54.266Z,95537.67
2019-01-04T17:53:20.268Z,95540.41
2019-01-04T17:55:46.307Z,95537.17
2019-01-04T17:58:12.275Z,95540.33
2019-01-04T18:00:38.282Z,95536.03
2019-01-04T18:03:04.296Z,95528.77
2019-01-04T18:05:30.276Z,95533.67
2019-01-04T18:07:56.261Z,95538.17
2019-01-04T18:10:22.269Z,95533.87
2019-01-04T18:12:48.270Z,95537.75
2019-01-04T18:15:14.340Z,95542.77
2019-01-04T18:17:40.324Z,95548.94
2019-01-04T18:20:10.948Z,95552.40
2019-01-04T18:22:34.528Z,95555.59
2019-01-04T18:25:00.618Z,95559.17
2019-01-04T18:27:26.511Z,95562.94
2019-01-04T18:29:52.548Z,95559.25
2019-01-04T18:32:18.514Z,95562.02
2019-01-04T18:34:44.566Z,95567.84
2019-01-04T18:37:10.538Z,95572.75
2019-01-04T18:39:36.646Z,95569.59
2019-01-04T18:42:02.687Z,95561.19
2019-01-04T18:44:28.665Z,95562.52
2019-01-04T18:46:54.647Z,95562.11
2019-01-04T18:49:20.901Z,95564.38
2019-01-04T18:51:46.864Z,95563.77
2019-01-04T18:54:12.864Z,95558.94
2019-01-04T18:56:38.892Z,95560.58
2019-01-04T18:59:04.894Z,95556.77
2019-01-04T19:01:30.870Z,95565.52
2019-01-04T19:03:56.883Z,95573.59
2019-01-04T19:06:22.881Z,95566.02
2019-01-04T19:08:48.873Z,95569.59
2019-01-04T19:11:14.912Z,95567.77
2019-01-04T19:13:40.867Z,95564.58
2019-01-04T19:16:06.881Z,95568.69
2019-01-04T19:18:32.864Z,95568.57
2019-01-04T19:20:58.855Z,95565.52
2019-01-04T19:23:24.836Z,95565.91
2019-01-04T19:25:50.862Z,95565.52
2019-01-04T19:28:16.858Z,95565.00
2019-01-04T19:30:42.868Z,95577.32
2019-01-04T19:33:08.942Z,95570.23
2019-01-04T19:35:34.926Z,95580.48
2019-01-04T19:38:00.946Z,95576.06
2019-01-04T19:40:26.927Z,95573.52
2019-01-04T19:42:52.901Z,95578.61
2019-01-04T19:45:18.941Z,95565.19
2019-01-04T19:47:44.904Z,95573.17
2019-01-04T19:50:10.895Z,95579.03
2019-01-04T19:52:36.903Z,95581.89
2019-01-04T19:55:05.086Z,95572.56
2019-01-04T19:57:31.069Z,95569.41
2019-01-04T19:59:57.093Z,95580.89
2019-01-04T20:02:23.092Z,95571.98
2019-01-04T20:04:50.452Z,95574.23
2019-01-04T20:07:15.098Z,95581.31
2019-01-04T20:09:41.068Z,95569.71
2019-01-04T20:12:07.096Z,95565.14
2019-01-04T20:14:33.083Z,95566.55
2019-01-04T20:16:59.086Z,95566.97
2019-01-04T20:19:25.101Z,95565.03
2019-01-04T20:21:51.115Z,95569.45
2019-01-04T20:24:17.126Z,95571.19
2019-01-04T20:26:43.206Z,95576.33
2019-01-04T20:29:09.416Z,95574.66
2019-01-04T20:31:36.610Z,95571.00
2019-01-04T20:34:01.393Z,95571.08
2019-01-04T20:36:27.419Z,95568.34
2019-01-04T20:38:53.416Z,95559.93
2019-01-04T20:41:19.389Z,95560.88
2019-01-04T20:43:45.410Z,95567.63
2019-01-04T20:46:11.405Z,95569.79
2019-01-04T20:48:37.394Z,95560.38
2019-01-04T20:51:03.421Z,95567.34
2019-01-04T20:53:29.410Z,95558.52
2019-01-04T20:55:55.412Z,95566.52
2019-01-04T20:58:21.433Z,95564.19
2019-01-04T21:00:47.413Z,95572.07
2019-01-04T21:03:13.441Z,95578.31
2019-01-04T21:05:39.542Z,95582.84
2019-01-04T21:08:05.520Z,95569.41
2019-01-04T21:10:31.548Z,95575.65
2019-01-04T21:12:57.536Z,95582.30
2019-01-04T21:15:23.528Z,95580.17
2019-01-04T21:17:49.545Z,95579.45
2019-01-04T21:20:15.555Z,95577.17
2019-01-04T21:22:41.513Z,95573.36
2019-01-04T21:25:07.518Z,95568.04
2019-01-04T21:27:33.511Z,95570.89
2019-01-04T21:29:59.490Z,95571.31
2019-01-04T21:32:25.519Z,95568.34
2019-01-04T21:34:51.809Z,95566.09
2019-01-04T21:37:17.782Z,95561.68
2019-01-04T21:39:43.759Z,95560.84
2019-01-04T21:42:09.763Z,95564.42
2019-01-04T21:44:35.763Z,95561.34
2019-01-04T21:47:01.776Z,95555.21
2019-01-04T21:49:27.757Z,95548.02
2019-01-04T21:51:53.742Z,95540.45
2019-01-04T21:54:19.781Z,95538.20
2019-01-04T21:56:45.839Z,95542.95
2019-01-04T21:59:11.813Z,95533.60
2019-01-04T22:01:37.823Z,95519.67
2019-01-04T22:04:03.846Z,95513.84
2019-01-04T22:06:29.824Z,95519.09
2019-01-04T22:08:55.872Z,95513.02
2019-01-04T22:11:21.841Z,95516.73
2019-01-04T22:13:47.805Z,95513.66
2019-01-04T22:16:13.869Z,95502.77
2019-01-04T22:18:39.865Z,95505.28
2019-01-04T22:21:05.875Z,95506.20
2019-01-04T22:23:31.871Z,95502.20
2019-01-04T22:25:57.856Z,95505.20
2019-01-04T22:28:23.890Z,95491.96
2019-01-04T22:30:49.909Z,95492.48
2019-01-04T22:33:15.941Z,95490.94
2019-01-04T22:35:41.920Z,95479.89
2019-01-04T22:38:07.896Z,95487.47
2019-01-04T22:40:33.924Z,95491.16
2019-01-04T22:42:59.959Z,95480.50
2019-01-04T22:45:25.930Z,95468.70
2019-01-04T22:47:51.918Z,95469.51
2019-01-04T22:50:21.005Z,95478.03
2019-01-04T22:52:43.913Z,95474.73
2019-01-04T22:55:09.904Z,95472.06
2019-01-04T22:57:36.077Z,95477.70
2019-01-04T23:00:02.105Z,95477.81
2019-01-04T23:02:28.078Z,95478.61
2019-01-04T23:04:54.116Z,95476.59
2019-01-04T23:07:20.146Z,95484.88
2019-01-04T23:09:46.113Z,95478.53
2019-01-04T23:12:12.141Z,95480.47
2019-01-04T23:14:38.118Z,95473.62
2019-01-04T23:17:04.097Z,95474.04
2019-01-04T23:19:30.129Z,95478.53
2019-01-04T23:21:56.191Z,95483.36
2019-01-04T23:24:22.206Z,95485.30
2019-01-04T23:26:48.184Z,95490.74
2019-01-04T23:29:14.152Z,95485.30
2019-01-04T23:31:40.174Z,95486.44
2019-01-04T23:34:06.159Z,95484.11
2019-01-04T23:36:32.152Z,95481.56
2019-01-04T23:38:58.138Z,95476.81
2019-01-04T23:41:24.127Z,95473.84
2019-01-04T23:43:50.159Z,95468.63
2019-01-04T23:46:16.130Z,95463.08
2019-01-04T23:48:42.113Z,95457.05
2019-01-04T23:51:08.109Z,95455.72
2019-01-04T23:53:34.079Z,95459.30
2019-01-04T23:56:00.109Z,95454.39
2019-01-04T23:58:26.074Z,95449.06
